sensor_id;sensor_type;location;lat;lon;timestamp;temperature;humidity
1329;DHT22;658;48.820;9.354;2023-04-26T00:02:04;22.10;44.40
1329;DHT22;658;48.820;9.354;2023-04-26T00:06:04;22.10;44.40
1329;DHT22;658;48.820;9.354;2023-04-26T00:10:08;22.20;44.50
1329;DHT22;658;48.820;9.354;2023-04-26T00:14:12;22.10;44.40
1329;DHT22;658;48.820;9.354;2023-04-26T00:18:13;22.10;44.40
1329;DHT22;658;48.820;9.354;2023-04-26T00:22:13;22.20;44.40
1329;DHT22;658;48.820;9.354;2023-04-26T00:26:14;22.20;44.40
1329;DHT22;658;48.820;9.354;2023-04-26T00:30:17;22.20;44.30
1329;DHT22;658;48.820;9.354;2023-04-26T00:34:18;22.30;44.50
1329;DHT22;658;48.820;9.354;2023-04-26T00:38:18;22.30;44.50
1329;DHT22;658;48.820;9.354;2023-04-26T00:42:20;22.30;44.50
1329;DHT22;658;48.820;9.354;2023-04-26T00:46:21;22.30;44.50
1329;DHT22;658;48.820;9.354;2023-04-26T00:50:22;22.30;44.40
1329;DHT22;658;48.820;9.354;2023-04-26T00:54:23;22.30;44.40
1329;DHT22;658;48.820;9.354;2023-04-26T00:58:24;22.30;44.40
1329;DHT22;658;48.820;9.354;2023-04-26T01:02:25;22.40;44.40
1329;DHT22;658;48.820;9.354;2023-04-26T01:06:32;22.40;44.30
1329;DHT22;658;48.820;9.354;2023-04-26T01:10:35;22.40;44.30
1329;DHT22;658;48.820;9.354;2023-04-26T01:14:36;22.40;44.30
1329;DHT22;658;48.820;9.354;2023-04-26T01:18:37;22.40;44.30
1329;DHT22;658;48.820;9.354;2023-04-26T01:22:38;22.40;44.30
1329;DHT22;658;48.820;9.354;2023-04-26T01:26:41;22.40;44.20
1329;DHT22;658;48.820;9.354;2023-04-26T01:30:45;22.40;44.10
1329;DHT22;658;48.820;9.354;2023-04-26T01:34:46;22.50;44.20
1329;DHT22;658;48.820;9.354;2023-04-26T01:38:46;22.50;44.10
1329;DHT22;658;48.820;9.354;2023-04-26T01:42:49;22.50;44.10
1329;DHT22;658;48.820;9.354;2023-04-26T01:46:50;22.50;44.10
1329;DHT22;658;48.820;9.354;2023-04-26T01:50:53;22.50;44.00
1329;DHT22;658;48.820;9.354;2023-04-26T01:54:54;22.50;44.00
1329;DHT22;658;48.820;9.354;2023-04-26T01:58:54;22.50;44.00
1329;DHT22;658;48.820;9.354;2023-04-26T02:02:56;22.50;44.00
1329;DHT22;658;48.820;9.354;2023-04-26T02:06:56;22.50;43.90
1329;DHT22;658;48.820;9.354;2023-04-26T02:10:59;22.50;43.90
1329;DHT22;658;48.820;9.354;2023-04-26T02:15:02;22.50;43.90
1329;DHT22;658;48.820;9.354;2023-04-26T02:19:04;22.50;43.90
1329;DHT22;658;48.820;9.354;2023-04-26T02:23:07;22.50;43.90
1329;DHT22;658;48.820;9.354;2023-04-26T02:27:07;22.50;43.80
1329;DHT22;658;48.820;9.354;2023-04-26T02:31:13;22.50;43.80
1329;DHT22;658;48.820;9.354;2023-04-26T02:35:13;22.50;43.60
1329;DHT22;658;48.820;9.354;2023-04-26T02:39:16;22.50;43.60
1329;DHT22;658;48.820;9.354;2023-04-26T02:43:17;22.50;43.50
1329;DHT22;658;48.820;9.354;2023-04-26T02:47:17;22.50;43.60
1329;DHT22;658;48.820;9.354;2023-04-26T02:51:20;22.50;43.60
1329;DHT22;658;48.820;9.354;2023-04-26T02:55:21;22.50;43.50
1329;DHT22;658;48.820;9.354;2023-04-26T02:59:22;22.50;43.50
1329;DHT22;658;48.820;9.354;2023-04-26T03:03:23;22.50;43.40
1329;DHT22;658;48.820;9.354;2023-04-26T03:07:26;22.50;43.50
1329;DHT22;658;48.820;9.354;2023-04-26T03:11:27;22.50;43.40
1329;DHT22;658;48.820;9.354;2023-04-26T03:15:27;22.50;43.40
1329;DHT22;658;48.820;9.354;2023-04-26T03:19:33;22.50;43.40
1329;DHT22;658;48.820;9.354;2023-04-26T03:23:33;22.50;43.30
1329;DHT22;658;48.820;9.354;2023-04-26T03:27:36;22.50;43.30
1329;DHT22;658;48.820;9.354;2023-04-26T03:31:39;22.50;43.30
1329;DHT22;658;48.820;9.354;2023-04-26T03:35:39;22.50;43.20
1329;DHT22;658;48.820;9.354;2023-04-26T03:39:40;22.50;43.20
1329;DHT22;658;48.820;9.354;2023-04-26T03:43:41;22.40;43.10
1329;DHT22;658;48.820;9.354;2023-04-26T03:47:43;22.50;43.20
1329;DHT22;658;48.820;9.354;2023-04-26T03:51:44;22.40;43.10
1329;DHT22;658;48.820;9.354;2023-04-26T03:55:44;22.40;43.10
1329;DHT22;658;48.820;9.354;2023-04-26T03:59:45;22.40;43.10
1329;DHT22;658;48.820;9.354;2023-04-26T04:03:53;22.40;43.60
1329;DHT22;658;48.820;9.354;2023-04-26T04:07:53;22.40;43.10
1329;DHT22;658;48.820;9.354;2023-04-26T04:11:55;22.40;43.00
1329;DHT22;658;48.820;9.354;2023-04-26T04:15:56;22.40;43.00
1329;DHT22;658;48.820;9.354;2023-04-26T04:19:56;22.40;43.00
1329;DHT22;658;48.820;9.354;2023-04-26T04:23:57;22.40;43.10
1329;DHT22;658;48.820;9.354;2023-04-26T04:28:00;22.40;43.00
1329;DHT22;658;48.820;9.354;2023-04-26T04:32:01;22.40;43.00
1329;DHT22;658;48.820;9.354;2023-04-26T04:36:01;22.40;42.90
1329;DHT22;658;48.820;9.354;2023-04-26T04:40:02;22.40;43.00
1329;DHT22;658;48.820;9.354;2023-04-26T04:44:03;22.30;43.00
1329;DHT22;658;48.820;9.354;2023-04-26T04:48:04;22.40;43.10
1329;DHT22;658;48.820;9.354;2023-04-26T04:52:08;22.40;43.20
1329;DHT22;658;48.820;9.354;2023-04-26T04:56:09;22.40;43.20
1329;DHT22;658;48.820;9.354;2023-04-26T05:00:10;22.40;43.20
1329;DHT22;658;48.820;9.354;2023-04-26T05:04:13;22.40;43.20
1329;DHT22;658;48.820;9.354;2023-04-26T05:08:14;22.40;43.20
1329;DHT22;658;48.820;9.354;2023-04-26T05:12:16;22.50;43.20
1329;DHT22;658;48.820;9.354;2023-04-26T05:16:19;22.50;43.30
1329;DHT22;658;48.820;9.354;2023-04-26T05:20:22;22.50;43.20
1329;DHT22;658;48.820;9.354;2023-04-26T05:24:23;22.50;43.00
1329;DHT22;658;48.820;9.354;2023-04-26T05:28:23;22.50;42.90
1329;DHT22;658;48.820;9.354;2023-04-26T05:32:26;22.60;43.00
1329;DHT22;658;48.820;9.354;2023-04-26T05:36:27;22.60;42.90
1329;DHT22;658;48.820;9.354;2023-04-26T05:40:28;22.60;42.90
1329;DHT22;658;48.820;9.354;2023-04-26T05:44:29;22.60;42.70
1329;DHT22;658;48.820;9.354;2023-04-26T05:48:32;22.70;42.70
1329;DHT22;658;48.820;9.354;2023-04-26T05:52:32;22.70;42.70
1329;DHT22;658;48.820;9.354;2023-04-26T05:56:33;22.70;42.60
1329;DHT22;658;48.820;9.354;2023-04-26T06:00:34;22.80;42.50
1329;DHT22;658;48.820;9.354;2023-04-26T06:04:35;22.90;42.60
1329;DHT22;658;48.820;9.354;2023-04-26T06:08:35;22.90;42.50
1329;DHT22;658;48.820;9.354;2023-04-26T06:12:38;23.00;42.50
1329;DHT22;658;48.820;9.354;2023-04-26T06:16:39;23.00;42.40
1329;DHT22;658;48.820;9.354;2023-04-26T06:20:39;23.00;42.30
1329;DHT22;658;48.820;9.354;2023-04-26T06:24:40;23.10;42.40
1329;DHT22;658;48.820;9.354;2023-04-26T06:28:40;23.10;42.30
1329;DHT22;658;48.820;9.354;2023-04-26T06:32:41;23.20;42.30
1329;DHT22;658;48.820;9.354;2023-04-26T06:36:42;23.20;42.20
1329;DHT22;658;48.820;9.354;2023-04-26T06:40:42;23.20;42.20
1329;DHT22;658;48.820;9.354;2023-04-26T06:44:43;23.30;42.20
1329;DHT22;658;48.820;9.354;2023-04-26T06:48:46;23.30;42.10
1329;DHT22;658;48.820;9.354;2023-04-26T06:52:49;23.30;42.00
1329;DHT22;658;48.820;9.354;2023-04-26T06:56:49;23.40;42.00
1329;DHT22;658;48.820;9.354;2023-04-26T07:00:50;23.50;41.90
1329;DHT22;658;48.820;9.354;2023-04-26T07:04:53;23.50;41.80
1329;DHT22;658;48.820;9.354;2023-04-26T07:09:00;23.60;41.70
1329;DHT22;658;48.820;9.354;2023-04-26T07:13:02;23.60;42.20
1329;DHT22;658;48.820;9.354;2023-04-26T07:17:02;23.70;41.70
1329;DHT22;658;48.820;9.354;2023-04-26T07:21:03;23.70;41.60
1329;DHT22;658;48.820;9.354;2023-04-26T07:25:04;23.80;41.60
1329;DHT22;658;48.820;9.354;2023-04-26T07:29:04;23.80;41.30
1329;DHT22;658;48.820;9.354;2023-04-26T07:33:05;23.90;41.30
1329;DHT22;658;48.820;9.354;2023-04-26T07:37:05;23.90;41.20
1329;DHT22;658;48.820;9.354;2023-04-26T07:41:06;24.00;41.30
1329;DHT22;658;48.820;9.354;2023-04-26T07:45:07;24.00;41.20
1329;DHT22;658;48.820;9.354;2023-04-26T07:49:10;24.00;41.10
1329;DHT22;658;48.820;9.354;2023-04-26T07:53:11;24.10;41.20
1329;DHT22;658;48.820;9.354;2023-04-26T07:57:14;24.10;41.10
1329;DHT22;658;48.820;9.354;2023-04-26T08:01:15;24.10;41.10
1329;DHT22;658;48.820;9.354;2023-04-26T08:05:16;24.10;41.00
1329;DHT22;658;48.820;9.354;2023-04-26T08:09:16;24.10;41.00
1329;DHT22;658;48.820;9.354;2023-04-26T08:13:17;24.20;41.00
1329;DHT22;658;48.820;9.354;2023-04-26T08:17:17;24.20;41.00
1329;DHT22;658;48.820;9.354;2023-04-26T08:21:18;24.20;41.00
1329;DHT22;658;48.820;9.354;2023-04-26T08:25:19;24.20;40.90
1329;DHT22;658;48.820;9.354;2023-04-26T08:29:19;24.30;40.90
1329;DHT22;658;48.820;9.354;2023-04-26T08:33:20;24.30;40.80
1329;DHT22;658;48.820;9.354;2023-04-26T08:37:23;24.30;40.70
1329;DHT22;658;48.820;9.354;2023-04-26T08:41:26;24.40;40.80
1329;DHT22;658;48.820;9.354;2023-04-26T08:45:30;24.40;40.60
1329;DHT22;658;48.820;9.354;2023-04-26T08:49:39;24.50;40.70
1329;DHT22;658;48.820;9.354;2023-04-26T08:53:41;24.50;40.50
1329;DHT22;658;48.820;9.354;2023-04-26T08:57:46;24.50;40.50
1329;DHT22;658;48.820;9.354;2023-04-26T09:01:47;24.60;41.00
1329;DHT22;658;48.820;9.354;2023-04-26T09:05:51;24.60;40.30
1329;DHT22;658;48.820;9.354;2023-04-26T09:09:53;24.70;40.20
1329;DHT22;658;48.820;9.354;2023-04-26T09:13:59;24.70;40.20
1329;DHT22;658;48.820;9.354;2023-04-26T09:18:22;24.70;40.10
1329;DHT22;658;48.820;9.354;2023-04-26T09:22:41;24.70;40.10
1329;DHT22;658;48.820;9.354;2023-04-26T09:26:41;24.70;40.10
1329;DHT22;658;48.820;9.354;2023-04-26T09:30:42;24.70;40.00
1329;DHT22;658;48.820;9.354;2023-04-26T09:34:44;24.70;40.00
1329;DHT22;658;48.820;9.354;2023-04-26T09:38:46;24.70;39.90
1329;DHT22;658;48.820;9.354;2023-04-26T09:42:55;24.70;39.80
1329;DHT22;658;48.820;9.354;2023-04-26T09:47:08;24.70;39.80
1329;DHT22;658;48.820;9.354;2023-04-26T09:51:11;24.80;39.70
1329;DHT22;658;48.820;9.354;2023-04-26T09:55:27;24.80;39.70
1329;DHT22;658;48.820;9.354;2023-04-26T09:59:44;24.80;39.50
1329;DHT22;658;48.820;9.354;2023-04-26T10:03:46;24.80;39.50
1329;DHT22;658;48.820;9.354;2023-04-26T10:07:48;24.80;39.40
1329;DHT22;658;48.820;9.354;2023-04-26T10:11:49;24.80;39.40
1329;DHT22;658;48.820;9.354;2023-04-26T10:15:49;24.90;39.30
1329;DHT22;658;48.820;9.354;2023-04-26T10:19:54;24.90;39.30
1329;DHT22;658;48.820;9.354;2023-04-26T10:23:56;24.90;39.20
1329;DHT22;658;48.820;9.354;2023-04-26T10:27:58;24.90;39.10
1329;DHT22;658;48.820;9.354;2023-04-26T10:36:08;25.00;39.10
1329;DHT22;658;48.820;9.354;2023-04-26T10:44:40;25.00;38.80
1329;DHT22;658;48.820;9.354;2023-04-26T10:48:41;25.10;38.60
1329;DHT22;658;48.820;9.354;2023-04-26T10:57:02;25.20;38.50
1329;DHT22;658;48.820;9.354;2023-04-26T11:01:07;25.20;38.40
1329;DHT22;658;48.820;9.354;2023-04-26T11:05:18;25.30;38.30
1329;DHT22;658;48.820;9.354;2023-04-26T11:09:47;25.30;38.30
1329;DHT22;658;48.820;9.354;2023-04-26T11:13:47;25.30;38.20
1329;DHT22;658;48.820;9.354;2023-04-26T11:17:50;25.40;38.20
1329;DHT22;658;48.820;9.354;2023-04-26T11:21:51;25.40;38.00
1329;DHT22;658;48.820;9.354;2023-04-26T11:25:51;25.40;38.00
1329;DHT22;658;48.820;9.354;2023-04-26T11:29:56;25.40;37.90
1329;DHT22;658;48.820;9.354;2023-04-26T11:34:03;25.50;38.00
1329;DHT22;658;48.820;9.354;2023-04-26T11:38:04;25.50;37.90
1329;DHT22;658;48.820;9.354;2023-04-26T11:42:09;25.50;37.80
1329;DHT22;658;48.820;9.354;2023-04-26T11:46:10;25.60;37.70
1329;DHT22;658;48.820;9.354;2023-04-26T11:50:11;25.60;37.60
1329;DHT22;658;48.820;9.354;2023-04-26T11:54:26;25.60;37.50
1329;DHT22;658;48.820;9.354;2023-04-26T11:58:27;25.70;37.50
1329;DHT22;658;48.820;9.354;2023-04-26T12:02:29;25.70;37.40
1329;DHT22;658;48.820;9.354;2023-04-26T12:10:33;25.80;37.40
1329;DHT22;658;48.820;9.354;2023-04-26T12:14:38;25.90;37.40
1329;DHT22;658;48.820;9.354;2023-04-26T12:18:40;26.00;37.30
1329;DHT22;658;48.820;9.354;2023-04-26T12:27:03;26.20;37.00
1329;DHT22;658;48.820;9.354;2023-04-26T12:31:06;26.30;36.70
1329;DHT22;658;48.820;9.354;2023-04-26T12:35:07;26.40;36.50
1329;DHT22;658;48.820;9.354;2023-04-26T12:39:09;26.40;36.40
1329;DHT22;658;48.820;9.354;2023-04-26T12:43:11;26.40;36.50
1329;DHT22;658;48.820;9.354;2023-04-26T12:47:12;26.50;36.50
1329;DHT22;658;48.820;9.354;2023-04-26T12:51:13;26.60;36.10
1329;DHT22;658;48.820;9.354;2023-04-26T12:55:14;26.50;36.00
1329;DHT22;658;48.820;9.354;2023-04-26T12:59:15;26.50;36.10
1329;DHT22;658;48.820;9.354;2023-04-26T13:03:16;26.50;36.20
1329;DHT22;658;48.820;9.354;2023-04-26T13:07:19;26.60;36.20
1329;DHT22;658;48.820;9.354;2023-04-26T13:11:20;26.70;36.30
1329;DHT22;658;48.820;9.354;2023-04-26T13:15:21;26.80;36.10
1329;DHT22;658;48.820;9.354;2023-04-26T13:19:24;26.90;35.80
1329;DHT22;658;48.820;9.354;2023-04-26T13:23:24;26.90;35.50
1329;DHT22;658;48.820;9.354;2023-04-26T13:27:27;26.90;35.40
1329;DHT22;658;48.820;9.354;2023-04-26T13:31:28;26.90;35.70
1329;DHT22;658;48.820;9.354;2023-04-26T13:35:29;26.90;35.60
1329;DHT22;658;48.820;9.354;2023-04-26T13:39:30;26.90;35.60
1329;DHT22;658;48.820;9.354;2023-04-26T13:43:30;26.90;35.60
1329;DHT22;658;48.820;9.354;2023-04-26T13:47:33;26.90;35.50
1329;DHT22;658;48.820;9.354;2023-04-26T13:51:34;26.80;35.70
1329;DHT22;658;48.820;9.354;2023-04-26T13:55:34;26.90;35.80
1329;DHT22;658;48.820;9.354;2023-04-26T13:59:35;27.00;35.60
1329;DHT22;658;48.820;9.354;2023-04-26T14:03:35;27.00;35.40
1329;DHT22;658;48.820;9.354;2023-04-26T14:07:36;27.10;35.30
1329;DHT22;658;48.820;9.354;2023-04-26T14:11:37;27.00;35.10
1329;DHT22;658;48.820;9.354;2023-04-26T14:15:37;27.00;35.20
1329;DHT22;658;48.820;9.354;2023-04-26T14:19:38;26.90;35.30
1329;DHT22;658;48.820;9.354;2023-04-26T14:23:39;26.90;35.30
1329;DHT22;658;48.820;9.354;2023-04-26T14:27:39;26.80;35.40
1329;DHT22;658;48.820;9.354;2023-04-26T14:31:40;26.80;35.50
1329;DHT22;658;48.820;9.354;2023-04-26T14:35:41;26.70;35.50
1329;DHT22;658;48.820;9.354;2023-04-26T14:39:42;26.70;35.60
1329;DHT22;658;48.820;9.354;2023-04-26T14:43:43;26.70;35.60
1329;DHT22;658;48.820;9.354;2023-04-26T14:47:45;26.70;35.60
1329;DHT22;658;48.820;9.354;2023-04-26T14:51:45;26.60;35.50
1329;DHT22;658;48.820;9.354;2023-04-26T14:55:55;26.60;35.50
1329;DHT22;658;48.820;9.354;2023-04-26T14:59:56;26.60;35.50
1329;DHT22;658;48.820;9.354;2023-04-26T15:04:03;26.60;35.40
1329;DHT22;658;48.820;9.354;2023-04-26T15:08:04;26.60;35.50
1329;DHT22;658;48.820;9.354;2023-04-26T15:12:05;26.60;35.60
1329;DHT22;658;48.820;9.354;2023-04-26T15:16:06;26.60;35.70
1329;DHT22;658;48.820;9.354;2023-04-26T15:20:07;26.60;35.60
1329;DHT22;658;48.820;9.354;2023-04-26T15:24:08;26.60;35.30
1329;DHT22;658;48.820;9.354;2023-04-26T15:28:11;26.60;35.30
1329;DHT22;658;48.820;9.354;2023-04-26T15:32:12;26.60;35.30
1329;DHT22;658;48.820;9.354;2023-04-26T15:36:13;26.60;35.30
1329;DHT22;658;48.820;9.354;2023-04-26T15:40:17;26.60;35.40
1329;DHT22;658;48.820;9.354;2023-04-26T15:44:18;26.60;35.40
1329;DHT22;658;48.820;9.354;2023-04-26T15:48:19;26.60;35.30
1329;DHT22;658;48.820;9.354;2023-04-26T15:52:19;26.50;35.30
1329;DHT22;658;48.820;9.354;2023-04-26T15:56:22;26.50;35.40
1329;DHT22;658;48.820;9.354;2023-04-26T16:00:23;26.50;35.50
1329;DHT22;658;48.820;9.354;2023-04-26T16:04:25;26.50;35.60
1329;DHT22;658;48.820;9.354;2023-04-26T16:08:26;26.50;35.70
1329;DHT22;658;48.820;9.354;2023-04-26T16:12:29;26.50;35.70
1329;DHT22;658;48.820;9.354;2023-04-26T16:16:32;26.40;35.70
1329;DHT22;658;48.820;9.354;2023-04-26T16:20:33;26.40;35.80
1329;DHT22;658;48.820;9.354;2023-04-26T16:24:36;26.40;35.80
1329;DHT22;658;48.820;9.354;2023-04-26T16:28:39;26.50;35.90
1329;DHT22;658;48.820;9.354;2023-04-26T16:32:40;26.40;35.80
1329;DHT22;658;48.820;9.354;2023-04-26T16:36:40;26.40;35.70
1329;DHT22;658;48.820;9.354;2023-04-26T16:40:41;26.50;35.90
1329;DHT22;658;48.820;9.354;2023-04-26T16:44:44;26.50;35.80
1329;DHT22;658;48.820;9.354;2023-04-26T16:48:44;26.50;35.80
1329;DHT22;658;48.820;9.354;2023-04-26T16:52:45;26.50;35.80
1329;DHT22;658;48.820;9.354;2023-04-26T16:56:46;26.50;35.80
1329;DHT22;658;48.820;9.354;2023-04-26T17:00:46;26.50;35.90
1329;DHT22;658;48.820;9.354;2023-04-26T17:04:47;26.50;35.90
1329;DHT22;658;48.820;9.354;2023-04-26T17:08:49;26.50;36.00
1329;DHT22;658;48.820;9.354;2023-04-26T17:12:49;26.40;35.90
1329;DHT22;658;48.820;9.354;2023-04-26T17:16:50;26.40;36.00
1329;DHT22;658;48.820;9.354;2023-04-26T17:20:54;26.40;36.20
1329;DHT22;658;48.820;9.354;2023-04-26T17:24:55;26.40;36.20
1329;DHT22;658;48.820;9.354;2023-04-26T17:28:56;26.40;36.30
1329;DHT22;658;48.820;9.354;2023-04-26T17:32:56;26.30;36.30
1329;DHT22;658;48.820;9.354;2023-04-26T17:36:57;26.30;36.30
1329;DHT22;658;48.820;9.354;2023-04-26T17:40:58;26.30;36.40
1329;DHT22;658;48.820;9.354;2023-04-26T17:45:01;26.20;36.40
1329;DHT22;658;48.820;9.354;2023-04-26T17:49:01;26.20;36.50
1329;DHT22;658;48.820;9.354;2023-04-26T17:53:02;26.10;36.60
1329;DHT22;658;48.820;9.354;2023-04-26T17:57:03;26.10;36.60
1329;DHT22;658;48.820;9.354;2023-04-26T18:01:05;26.10;36.60
1329;DHT22;658;48.820;9.354;2023-04-26T18:05:09;26.00;36.70
1329;DHT22;658;48.820;9.354;2023-04-26T18:09:09;26.00;36.90
1329;DHT22;658;48.820;9.354;2023-04-26T18:13:10;25.90;36.80
1329;DHT22;658;48.820;9.354;2023-04-26T18:17:14;25.90;36.90
1329;DHT22;658;48.820;9.354;2023-04-26T18:21:14;25.90;37.00
1329;DHT22;658;48.820;9.354;2023-04-26T18:25:15;25.80;36.90
1329;DHT22;658;48.820;9.354;2023-04-26T18:29:16;25.80;37.40
1329;DHT22;658;48.820;9.354;2023-04-26T18:33:16;25.70;37.50
1329;DHT22;658;48.820;9.354;2023-04-26T18:37:19;25.70;37.70
1329;DHT22;658;48.820;9.354;2023-04-26T18:41:19;25.70;37.80
1329;DHT22;658;48.820;9.354;2023-04-26T18:45:23;25.70;37.90
1329;DHT22;658;48.820;9.354;2023-04-26T18:49:26;25.60;38.00
1329;DHT22;658;48.820;9.354;2023-04-26T18:53:26;25.60;38.40
1329;DHT22;658;48.820;9.354;2023-04-26T18:57:27;25.60;38.50
1329;DHT22;658;48.820;9.354;2023-04-26T19:01:30;25.60;38.60
1329;DHT22;658;48.820;9.354;2023-04-26T19:05:30;25.60;38.60
1329;DHT22;658;48.820;9.354;2023-04-26T19:09:31;25.60;38.50
1329;DHT22;658;48.820;9.354;2023-04-26T19:13:32;25.60;38.50
1329;DHT22;658;48.820;9.354;2023-04-26T19:17:33;25.60;38.50
1329;DHT22;658;48.820;9.354;2023-04-26T19:21:34;25.60;38.70
1329;DHT22;658;48.820;9.354;2023-04-26T19:25:34;25.60;38.60
1329;DHT22;658;48.820;9.354;2023-04-26T19:29:35;25.50;38.50
1329;DHT22;658;48.820;9.354;2023-04-26T19:33:36;25.50;38.50
1329;DHT22;658;48.820;9.354;2023-04-26T19:37:37;25.40;38.50
1329;DHT22;658;48.820;9.354;2023-04-26T19:41:38;25.40;38.60
1329;DHT22;658;48.820;9.354;2023-04-26T19:45:38;25.30;38.50
1329;DHT22;658;48.820;9.354;2023-04-26T19:49:40;25.30;38.60
1329;DHT22;658;48.820;9.354;2023-04-26T19:53:44;25.30;38.60
1329;DHT22;658;48.820;9.354;2023-04-26T19:57:44;25.30;38.80
1329;DHT22;658;48.820;9.354;2023-04-26T20:01:50;25.30;38.70
1329;DHT22;658;48.820;9.354;2023-04-26T20:05:51;25.20;38.70
1329;DHT22;658;48.820;9.354;2023-04-26T20:09:51;25.20;38.80
1329;DHT22;658;48.820;9.354;2023-04-26T20:13:52;25.10;38.80
1329;DHT22;658;48.820;9.354;2023-04-26T20:17:55;25.10;38.80
1329;DHT22;658;48.820;9.354;2023-04-26T20:21:56;25.10;38.90
1329;DHT22;658;48.820;9.354;2023-04-26T20:25:56;25.10;39.20
1329;DHT22;658;48.820;9.354;2023-04-26T20:29:57;25.10;39.00
1329;DHT22;658;48.820;9.354;2023-04-26T20:34:00;25.10;39.10
1329;DHT22;658;48.820;9.354;2023-04-26T20:38:01;25.10;39.20
1329;DHT22;658;48.820;9.354;2023-04-26T20:42:01;25.10;39.20
1329;DHT22;658;48.820;9.354;2023-04-26T20:46:02;25.10;39.20
1329;DHT22;658;48.820;9.354;2023-04-26T20:50:04;25.10;39.30
1329;DHT22;658;48.820;9.354;2023-04-26T20:54:04;25.10;39.40
1329;DHT22;658;48.820;9.354;2023-04-26T20:58:07;25.10;39.40
1329;DHT22;658;48.820;9.354;2023-04-26T21:02:10;25.10;39.50
1329;DHT22;658;48.820;9.354;2023-04-26T21:06:11;25.10;39.50
1329;DHT22;658;48.820;9.354;2023-04-26T21:10:15;25.10;39.50
1329;DHT22;658;48.820;9.354;2023-04-26T21:14:18;25.10;39.50
1329;DHT22;658;48.820;9.354;2023-04-26T21:18:19;25.10;39.50
1329;DHT22;658;48.820;9.354;2023-04-26T21:22:25;25.10;39.50
1329;DHT22;658;48.820;9.354;2023-04-26T21:26:25;25.10;39.60
1329;DHT22;658;48.820;9.354;2023-04-26T21:30:26;25.10;39.30
1329;DHT22;658;48.820;9.354;2023-04-26T21:34:27;25.00;39.30
1329;DHT22;658;48.820;9.354;2023-04-26T21:38:27;25.00;39.30
1329;DHT22;658;48.820;9.354;2023-04-26T21:42:28;25.00;39.30
1329;DHT22;658;48.820;9.354;2023-04-26T21:46:31;25.00;39.20
1329;DHT22;658;48.820;9.354;2023-04-26T21:50:31;25.00;39.20
1329;DHT22;658;48.820;9.354;2023-04-26T21:54:32;24.90;39.10
1329;DHT22;658;48.820;9.354;2023-04-26T21:58:34;24.90;39.20
1329;DHT22;658;48.820;9.354;2023-04-26T22:02:35;24.90;39.20
1329;DHT22;658;48.820;9.354;2023-04-26T22:06:36;24.90;39.20
1329;DHT22;658;48.820;9.354;2023-04-26T22:10:36;24.80;39.10
1329;DHT22;658;48.820;9.354;2023-04-26T22:14:39;24.80;39.10
1329;DHT22;658;48.820;9.354;2023-04-26T22:18:40;24.80;39.10
1329;DHT22;658;48.820;9.354;2023-04-26T22:22:41;24.80;39.10
1329;DHT22;658;48.820;9.354;2023-04-26T22:26:46;24.70;39.00
1329;DHT22;658;48.820;9.354;2023-04-26T22:30:47;24.70;39.10
1329;DHT22;658;48.820;9.354;2023-04-26T22:34:50;24.60;39.00
1329;DHT22;658;48.820;9.354;2023-04-26T22:38:50;24.60;39.10
1329;DHT22;658;48.820;9.354;2023-04-26T22:42:51;24.60;39.10
1329;DHT22;658;48.820;9.354;2023-04-26T22:46:53;24.60;39.10
1329;DHT22;658;48.820;9.354;2023-04-26T22:50:56;24.50;39.10
1329;DHT22;658;48.820;9.354;2023-04-26T22:54:59;24.50;39.10
1329;DHT22;658;48.820;9.354;2023-04-26T22:59:00;24.50;39.20
1329;DHT22;658;48.820;9.354;2023-04-26T23:03:00;24.50;39.20
1329;DHT22;658;48.820;9.354;2023-04-26T23:07:03;24.50;39.20
1329;DHT22;658;48.820;9.354;2023-04-26T23:11:07;24.40;39.20
1329;DHT22;658;48.820;9.354;2023-04-26T23:15:08;24.40;39.70
1329;DHT22;658;48.820;9.354;2023-04-26T23:19:09;24.30;39.10
1329;DHT22;658;48.820;9.354;2023-04-26T23:23:10;24.30;39.10
1329;DHT22;658;48.820;9.354;2023-04-26T23:27:13;24.30;39.10
1329;DHT22;658;48.820;9.354;2023-04-26T23:31:13;24.30;39.10
1329;DHT22;658;48.820;9.354;2023-04-26T23:35:14;24.30;39.10
1329;DHT22;658;48.820;9.354;2023-04-26T23:39:17;24.30;39.10
1329;DHT22;658;48.820;9.354;2023-04-26T23:43:18;24.20;39.10
1329;DHT22;658;48.820;9.354;2023-04-26T23:47:18;24.20;39.10
1329;DHT22;658;48.820;9.354;2023-04-26T23:51:21;24.20;39.10
1329;DHT22;658;48.820;9.354;2023-04-26T23:55:22;24.20;39.20
1329;DHT22;658;48.820;9.354;2023-04-26T23:59:23;24.20;39.30
